Time;durP1;ratioP1;P1;durP2;ratioP2;P2;SDS_P1;SDS_P2;PMS_P1;PMS_P2;Temp;Humidity;BMP_temperature;BMP_pressure;BME280_temperature;BME280_humidity;BME280_pressure;Samples;Min_cycle;Max_cycle;Signal;HPM_P1;HPM_P2
2022/08/15 00:01:30;;;;;;;17.60;13.73;;;20.10;99.90;;;;;;4954982;28;20415;-81
2022/08/15 00:04:01;;;;;;;14.60;13.13;;;20.10;99.90;;;;;;4956906;28;20505;-80
2022/08/15 00:06:40;;;;;;;19.40;14.47;;;20.30;99.90;;;;;;4960703;28;20436;-80
2022/08/15 00:09:19;;;;;;;14.87;13.47;;;20.40;99.90;;;;;;4956329;28;20906;-79
2022/08/15 00:11:56;;;;;;;14.60;13.10;;;20.40;99.90;;;;;;4959041;28;20463;-80
2022/08/15 00:14:30;;;;;;;16.80;14.07;;;20.40;99.90;;;;;;4955839;28;20441;-80
2022/08/15 00:17:09;;;;;;;16.87;13.87;;;20.40;99.90;;;;;;4958348;29;20539;-81
2022/08/15 00:19:47;;;;;;;17.93;12.80;;;20.40;99.90;;;;;;4954137;29;20734;-80
2022/08/15 00:22:17;;;;;;;16.10;13.53;;;20.40;99.90;;;;;;4955300;29;20730;-80
2022/08/15 00:24:48;;;;;;;17.33;13.77;;;20.40;99.90;;;;;;4960412;29;20481;-80
2022/08/15 00:27:19;;;;;;;18.17;13.90;;;20.30;99.90;;;;;;4955711;29;20432;-82
2022/08/15 00:29:52;;;;;;;16.00;12.77;;;20.30;99.90;;;;;;4949768;29;20442;-80
2022/08/15 00:32:23;;;;;;;15.53;12.67;;;20.30;99.90;;;;;;4953114;29;20420;-80
2022/08/15 00:38:13;;;;;;;15.17;12.70;;;20.30;99.90;;;;;;4954693;29;20465;-80
2022/08/15 00:44:05;;;;;;;15.13;13.00;;;20.40;99.90;;;;;;4948538;29;20540;-80
2022/08/15 00:46:35;;;;;;;16.43;13.67;;;20.40;99.90;;;;;;4955163;29;20452;-81
2022/08/15 00:49:04;;;;;;;16.90;14.07;;;20.40;99.90;;;;;;4958575;28;20678;-81
2022/08/15 00:51:43;;;;;;;15.20;13.60;;;20.50;99.90;;;;;;4952521;28;20512;-80
2022/08/15 00:54:20;;;;;;;15.33;13.27;;;20.40;99.90;;;;;;4955904;29;20429;-79
2022/08/15 00:57:28;;;;;;;20.30;13.30;;;20.50;99.90;;;;;;4955541;29;20731;-81
2022/08/15 01:00:22;;;;;;;18.23;14.17;;;20.40;99.90;;;;;;4954272;29;20436;-81
2022/08/15 01:03:10;;;;;;;14.43;12.43;;;20.40;99.90;;;;;;4955806;29;20424;-81
2022/08/15 01:05:46;;;;;;;16.47;13.43;;;20.30;99.90;;;;;;4959378;28;20459;-81
2022/08/15 01:08:20;;;;;;;18.30;14.07;;;20.30;99.90;;;;;;4959048;28;20448;-81
2022/08/15 01:11:07;;;;;;;19.83;14.60;;;20.30;99.90;;;;;;4952312;28;20642;-80
2022/08/15 01:13:35;;;;;;;14.97;13.20;;;20.10;99.90;;;;;;4954339;29;20408;-81
2022/08/15 01:16:25;;;;;;;15.90;13.47;;;19.60;99.90;;;;;;4957132;28;20459;-82
2022/08/15 01:19:11;;;;;;;14.13;11.63;;;19.50;99.90;;;;;;4953369;29;20439;-79
2022/08/15 01:22:03;;;;;;;15.23;13.43;;;19.60;99.90;;;;;;4958000;28;20446;-80
2022/08/15 01:24:52;;;;;;;19.77;14.70;;;19.80;99.90;;;;;;4952361;28;20434;-81
2022/08/15 01:27:44;;;;;;;21.47;14.63;;;19.90;99.90;;;;;;4948479;28;20794;-80
2022/08/15 01:30:17;;;;;;;19.53;14.30;;;20.00;99.90;;;;;;4958976;28;20482;-80
2022/08/15 01:33:05;;;;;;;16.70;13.80;;;19.80;99.90;;;;;;4958428;28;20433;-82
2022/08/15 01:35:34;;;;;;;16.30;13.40;;;19.90;99.90;;;;;;4954555;28;20601;-82
2022/08/15 01:38:25;;;;;;;18.20;14.10;;;19.90;99.90;;;;;;4957844;29;20448;-79
2022/08/15 01:41:19;;;;;;;21.00;14.53;;;19.70;99.90;;;;;;4954067;29;20432;-79
2022/08/15 01:44:20;;;;;;;19.73;16.20;;;19.30;99.90;;;;;;4954676;29;20511;-80
2022/08/15 01:47:18;;;;;;;18.77;15.80;;;19.30;99.90;;;;;;4953693;29;20448;-81
2022/08/15 01:49:54;;;;;;;19.17;16.50;;;19.50;99.90;;;;;;4953349;28;20514;-81
2022/08/15 01:52:32;;;;;;;20.30;15.87;;;19.60;99.90;;;;;;4950720;29;20824;-80
2022/08/15 01:55:46;;;;;;;16.00;13.63;;;19.70;99.90;;;;;;4955971;28;20437;-79
2022/08/15 01:58:20;;;;;;;20.93;15.20;;;19.70;99.90;;;;;;4952995;28;20419;-80
2022/08/15 02:00:54;;;;;;;22.17;15.33;;;19.50;99.90;;;;;;4954675;29;20473;-80
2022/08/15 02:03:33;;;;;;;24.90;17.00;;;19.50;99.90;;;;;;4957992;28;20766;-79
2022/08/15 02:06:29;;;;;;;17.57;15.67;;;19.50;99.90;;;;;;4957274;29;20441;-79
2022/08/15 02:09:07;;;;;;;18.33;15.03;;;19.60;99.90;;;;;;4952653;28;20460;-80
2022/08/15 02:11:56;;;;;;;24.17;15.10;;;19.70;99.90;;;;;;4951619;29;20415;-81
2022/08/15 02:14:27;;;;;;;17.77;15.53;;;19.70;99.90;;;;;;4955090;29;20512;-81
2022/08/15 02:17:06;;;;;;;22.67;14.73;;;19.40;99.90;;;;;;4954007;28;20485;-80
2022/08/15 02:19:33;;;;;;;16.97;14.20;;;19.40;99.90;;;;;;4955470;28;20452;-81
2022/08/15 02:22:13;;;;;;;24.27;16.50;;;19.40;99.90;;;;;;4952542;28;20461;-79
2022/08/15 02:24:59;;;;;;;21.17;16.47;;;19.40;99.90;;;;;;4955389;29;20453;-79
2022/08/15 02:27:32;;;;;;;18.83;14.70;;;19.50;99.90;;;;;;4956597;28;20447;-81
2022/08/15 02:30:08;;;;;;;22.57;16.07;;;19.60;99.90;;;;;;4954945;29;20451;-80
2022/08/15 02:32:39;;;;;;;26.23;17.00;;;19.60;99.90;;;;;;4956429;28;20423;-80
2022/08/15 02:35:08;;;;;;;17.47;14.43;;;19.60;99.90;;;;;;4953207;29;20626;-80
2022/08/15 02:37:35;;;;;;;19.97;15.13;;;19.50;99.90;;;;;;4955911;28;20462;-80
2022/08/15 02:40:08;;;;;;;19.40;15.63;;;19.50;99.90;;;;;;4951195;29;20488;-80
2022/08/15 02:42:56;;;;;;;19.43;15.50;;;19.60;99.90;;;;;;4949928;29;20444;-79
2022/08/15 02:45:22;;;;;;;23.03;18.57;;;19.60;99.90;;;;;;4953343;28;20451;-80
2022/08/15 02:47:55;;;;;;;21.10;15.93;;;19.50;99.90;;;;;;4949414;29;20448;-79
2022/08/15 02:50:22;;;;;;;20.83;15.40;;;19.50;99.90;;;;;;4952740;28;20438;-80
2022/08/15 02:52:49;;;;;;;19.50;14.80;;;19.30;99.90;;;;;;4949185;29;20539;-80
2022/08/15 02:55:19;;;;;;;20.70;17.40;;;19.00;99.90;;;;;;4952332;28;20441;-79
2022/08/15 02:57:50;;;;;;;19.53;16.07;;;18.80;99.90;;;;;;4949224;29;20450;-79
2022/08/15 03:00:27;;;;;;;22.73;18.07;;;18.80;99.90;;;;;;4956122;28;20479;-80
2022/08/15 03:02:59;;;;;;;26.07;18.83;;;19.10;99.90;;;;;;4955788;29;20486;-80
2022/08/15 03:05:29;;;;;;;26.60;18.80;;;19.30;99.90;;;;;;4950526;29;20475;-81
2022/08/15 03:07:57;;;;;;;27.30;15.20;;;19.30;99.90;;;;;;4953957;29;20604;-79
2022/08/15 03:10:24;;;;;;;22.03;16.60;;;19.30;99.90;;;;;;4955194;28;20463;-79
2022/08/15 03:13:05;;;;;;;21.27;17.47;;;19.20;99.90;;;;;;4948960;28;20587;-80
2022/08/15 03:15:47;;;;;;;24.63;17.60;;;18.90;99.90;;;;;;4955782;28;20613;-82
2022/08/15 03:18:26;;;;;;;23.03;18.07;;;19.10;99.90;;;;;;4951087;28;20632;-80
2022/08/15 03:21:00;;;;;;;23.50;16.70;;;18.90;99.90;;;;;;4961613;28;20443;-79
2022/08/15 03:23:32;;;;;;;25.50;16.87;;;18.80;99.90;;;;;;4955835;28;20470;-80
2022/08/15 03:26:09;;;;;;;25.60;18.83;;;18.60;99.90;;;;;;4954427;28;20457;-79
2022/08/15 03:28:55;;;;;;;26.30;19.27;;;18.60;99.90;;;;;;4954999;28;20426;-79
2022/08/15 03:31:34;;;;;;;25.47;18.43;;;18.50;99.90;;;;;;4963782;28;20433;-80
2022/08/15 03:34:12;;;;;;;26.53;19.50;;;18.50;99.90;;;;;;4955819;29;20500;-80
2022/08/15 03:36:45;;;;;;;27.60;18.90;;;18.70;99.90;;;;;;4956870;28;20487;-79
2022/08/15 03:39:19;;;;;;;31.20;20.50;;;18.70;99.90;;;;;;4954736;29;20420;-80
2022/08/15 03:41:46;;;;;;;34.67;20.07;;;18.80;99.90;;;;;;4958590;28;20445;-79
2022/08/15 03:44:23;;;;;;;23.33;19.83;;;18.80;99.90;;;;;;4960154;28;20601;-78
2022/08/15 03:46:54;;;;;;;21.93;16.70;;;18.90;99.90;;;;;;4953391;29;20419;-79
2022/08/15 03:49:22;;;;;;;27.47;18.60;;;19.00;99.90;;;;;;4956574;28;20433;-81
2022/08/15 03:52:09;;;;;;;28.70;19.87;;;19.00;99.90;;;;;;4955670;28;20437;-79
2022/08/15 03:54:37;;;;;;;25.10;17.90;;;18.90;99.90;;;;;;4956304;28;20419;-81
2022/08/15 03:57:05;;;;;;;29.27;21.60;;;18.80;99.90;;;;;;4957392;28;20491;-78
2022/08/15 03:59:34;;;;;;;23.50;20.37;;;18.80;99.90;;;;;;4955837;28;20514;-78
2022/08/15 04:02:12;;;;;;;22.10;18.77;;;19.10;99.90;;;;;;4955460;28;20717;-79
2022/08/15 04:04:58;;;;;;;23.47;18.37;;;19.20;99.90;;;;;;4955206;28;20495;-81
2022/08/15 04:07:26;;;;;;;23.53;18.30;;;19.30;99.90;;;;;;4959722;28;20424;-80
2022/08/15 04:10:15;;;;;;;19.83;16.20;;;19.50;99.90;;;;;;4958629;28;20894;-79
2022/08/15 04:13:04;;;;;;;23.20;18.80;;;19.30;99.90;;;;;;4954469;29;20482;-80
2022/08/15 04:15:34;;;;;;;20.83;17.77;;;19.30;99.90;;;;;;4954999;28;20487;-80
2022/08/15 04:18:02;;;;;;;25.80;17.90;;;19.10;99.90;;;;;;4950855;29;20475;-80
2022/08/15 04:20:49;;;;;;;21.27;16.00;;;19.20;99.90;;;;;;4949696;28;20441;-80
2022/08/15 04:23:17;;;;;;;20.93;16.87;;;19.20;99.90;;;;;;4949791;28;20444;-80
2022/08/15 04:25:49;;;;;;;21.30;18.40;;;19.20;99.90;;;;;;4948728;29;20404;-80
2022/08/15 04:28:24;;;;;;;21.63;17.63;;;19.20;99.90;;;;;;4962020;28;20453;-78
2022/08/15 04:31:15;;;;;;;19.40;17.27;;;19.10;99.90;;;;;;4964201;28;20460;-79
2022/08/15 04:33:44;;;;;;;19.47;17.20;;;18.90;99.90;;;;;;4965749;28;20442;-78
2022/08/15 04:36:31;;;;;;;20.10;17.80;;;19.10;99.90;;;;;;4966818;28;20423;-79
2022/08/15 04:39:00;;;;;;;21.80;16.60;;;19.20;99.90;;;;;;4956844;28;20491;-80
2022/08/15 04:41:31;;;;;;;19.33;17.20;;;19.20;99.90;;;;;;4953017;28;20457;-80
2022/08/15 04:44:04;;;;;;;23.50;16.60;;;19.30;99.90;;;;;;4956157;28;20441;-79
2022/08/15 04:46:31;;;;;;;17.33;15.30;;;19.40;99.90;;;;;;4954393;28;20460;-79
2022/08/15 04:48:59;;;;;;;23.13;17.27;;;19.70;99.90;;;;;;4945957;29;20603;-78
2022/08/15 04:51:27;;;;;;;21.73;17.17;;;19.60;99.90;;;;;;4955194;28;20432;-80
2022/08/15 04:54:00;;;;;;;18.30;16.33;;;19.60;99.90;;;;;;4959327;29;20448;-78
2022/08/15 04:56:28;;;;;;;19.70;16.67;;;19.90;99.90;;;;;;4954191;28;20434;-80
2022/08/15 04:59:15;;;;;;;17.30;15.10;;;19.90;99.90;;;;;;4949998;28;20469;-79
2022/08/15 05:02:03;;;;;;;18.90;15.13;;;20.20;99.90;;;;;;4963147;28;20468;-78
2022/08/15 05:04:50;;;;;;;20.80;15.30;;;20.40;99.90;;;;;;4972298;28;20440;-80
2022/08/15 05:07:18;;;;;;;17.60;13.80;;;20.50;99.90;;;;;;4956573;28;20747;-79
2022/08/15 05:09:44;;;;;;;15.80;14.20;;;20.60;99.90;;;;;;4958462;28;20446;-80
2022/08/15 05:12:29;;;;;;;15.53;13.47;;;20.60;99.90;;;;;;4953805;28;20469;-80
2022/08/15 05:15:02;;;;;;;18.20;14.30;;;20.70;99.90;;;;;;4952930;29;20670;-81
2022/08/15 05:17:31;;;;;;;18.20;13.57;;;21.00;99.90;;;;;;4957532;28;20495;-77
2022/08/15 05:20:19;;;;;;;16.67;13.90;;;21.20;99.90;;;;;;4950627;28;20614;-79
2022/08/15 05:23:04;;;;;;;14.43;12.87;;;21.20;99.90;;;;;;4955973;28;20484;-79
2022/08/15 05:25:35;;;;;;;19.13;15.20;;;21.10;99.90;;;;;;4956748;29;20479;-76
2022/08/15 05:28:09;;;;;;;16.90;14.40;;;21.40;99.90;;;;;;4955682;28;20464;-78
2022/08/15 05:30:58;;;;;;;18.37;16.10;;;21.50;99.90;;;;;;4951712;29;20488;-79
2022/08/15 05:33:42;;;;;;;21.63;17.57;;;21.70;99.90;;;;;;4955006;28;20500;-77
2022/08/15 05:36:24;;;;;;;21.23;19.00;;;21.60;99.90;;;;;;4962714;28;20468;-79
2022/08/15 05:38:59;;;;;;;20.10;18.00;;;21.60;99.90;;;;;;4967245;28;20454;-80
2022/08/15 05:41:32;;;;;;;25.00;19.93;;;21.50;99.90;;;;;;4952892;28;20444;-78
2022/08/15 05:44:14;;;;;;;21.73;17.97;;;21.50;99.90;;;;;;4947514;28;20443;-80
2022/08/15 05:47:32;;;;;;;21.83;19.53;;;21.80;99.90;;;;;;4948596;29;20465;-82
2022/08/15 05:50:28;;;;;;;21.90;18.87;;;21.80;99.90;;;;;;4953484;29;20472;-78
2022/08/15 05:53:18;;;;;;;19.77;17.27;;;21.70;99.90;;;;;;4952203;29;20751;-79
2022/08/15 05:56:16;;;;;;;21.60;18.80;;;21.50;99.90;;;;;;4952115;28;20406;-79
2022/08/15 05:59:06;;;;;;;25.10;17.73;;;21.30;99.90;;;;;;4950183;29;20489;-79
2022/08/15 06:01:45;;;;;;;25.77;20.07;;;21.20;99.90;;;;;;4950525;28;20616;-80
2022/08/15 06:05:08;;;;;;;21.60;17.43;;;21.30;99.90;;;;;;4949793;28;20429;-79
2022/08/15 06:07:41;;;;;;;21.67;17.93;;;21.60;99.90;;;;;;4941927;28;20439;-78
2022/08/15 06:10:28;;;;;;;20.60;16.73;;;21.60;99.90;;;;;;4949670;28;20427;-78
2022/08/15 06:13:24;;;;;;;19.87;17.80;;;21.80;99.90;;;;;;4953142;28;20417;-80
2022/08/15 06:16:16;;;;;;;18.70;15.67;;;22.00;99.90;;;;;;4939379;29;20447;-78
2022/08/15 06:19:13;;;;;;;17.93;15.70;;;22.40;99.90;;;;;;4940237;28;20684;-80
2022/08/15 06:21:53;;;;;;;18.27;15.50;;;22.90;99.90;;;;;;4943331;29;20502;-81
2022/08/15 06:24:38;;;;;;;15.97;14.30;;;23.10;99.90;;;;;;4940010;29;20453;-79
2022/08/15 06:27:19;;;;;;;18.47;16.50;;;23.20;99.90;;;;;;4953040;29;20639;-80
2022/08/15 06:30:14;;;;;;;20.30;18.13;;;23.00;99.90;;;;;;4945481;28;20441;-79
2022/08/15 06:32:46;;;;;;;18.33;16.10;;;23.10;99.90;;;;;;4943043;29;20468;-80
2022/08/15 06:35:46;;;;;;;21.53;17.30;;;23.40;99.90;;;;;;4949062;29;20445;-77
2022/08/15 06:38:51;;;;;;;19.07;16.93;;;23.80;99.90;;;;;;4950298;29;20463;-79
2022/08/15 06:41:27;;;;;;;21.20;17.40;;;24.30;99.90;;;;;;4945666;29;20442;-80
2022/08/15 06:43:56;;;;;;;22.57;19.57;;;24.50;99.90;;;;;;4944575;29;20462;-80
2022/08/15 06:46:29;;;;;;;22.20;17.83;;;24.80;99.90;;;;;;4949119;28;20824;-79
2022/08/15 06:49:19;;;;;;;21.50;18.80;;;25.10;99.90;;;;;;4944689;29;20488;-79
2022/08/15 06:51:50;;;;;;;23.73;19.43;;;25.90;99.90;;;;;;4941177;29;20519;-79
2022/08/15 06:54:27;;;;;;;22.33;16.90;;;26.30;99.90;;;;;;4945974;29;20424;-80
2022/08/15 06:57:24;;;;;;;17.70;15.83;;;27.20;99.90;;;;;;4947440;29;20450;-80
2022/08/15 06:59:56;;;;;;;16.80;15.20;;;27.60;99.90;;;;;;4950747;28;20504;-79
2022/08/15 07:02:40;;;;;;;21.03;16.57;;;28.30;99.90;;;;;;4955358;28;20448;-80
2022/08/15 07:05:20;;;;;;;18.50;16.60;;;28.50;99.90;;;;;;4962580;28;20640;-81
2022/08/15 07:08:09;;;;;;;18.87;16.60;;;28.70;99.90;;;;;;4952923;28;20862;-78
2022/08/15 07:10:52;;;;;;;18.20;15.63;;;29.20;99.90;;;;;;4966536;28;20839;-78
2022/08/15 07:13:25;;;;;;;15.97;14.47;;;30.50;99.90;;;;;;4958435;28;20449;-78
2022/08/15 07:15:58;;;;;;;19.40;17.47;;;31.60;99.90;;;;;;4955982;28;20482;-79
2022/08/15 07:18:28;;;;;;;16.60;14.33;;;33.40;99.90;;;;;;4958203;28;20491;-78
2022/08/15 07:21:01;;;;;;;15.93;14.37;;;33.70;99.90;;;;;;4965718;28;20451;-78
2022/08/15 07:23:57;;;;;;;17.13;13.77;;;35.20;99.90;;;;;;4960389;28;20458;-78
2022/08/15 07:26:27;;;;;;;17.37;15.20;;;35.90;99.90;;;;;;4962982;28;20459;-78
2022/08/15 07:28:58;;;;;;;16.10;13.07;;;35.40;99.90;;;;;;4963900;28;20445;-78
2022/08/15 07:31:33;;;;;;;16.23;14.63;;;35.00;99.90;;;;;;4963595;28;20824;-80
2022/08/15 07:34:23;;;;;;;18.43;15.10;;;34.50;99.90;;;;;;4959354;28;20441;-77
2022/08/15 07:37:03;;;;;;;19.13;14.90;;;34.00;99.90;;;;;;4966117;28;20727;-80
2022/08/15 07:39:41;;;;;;;18.53;16.60;;;33.40;99.90;;;;;;4960145;28;20504;-79
2022/08/15 07:42:20;;;;;;;15.53;14.10;;;33.20;99.90;;;;;;4953394;28;20507;-80
2022/08/15 07:45:18;;;;;;;16.73;13.60;;;34.50;99.90;;;;;;4954814;28;20618;-82
2022/08/15 07:48:05;;;;;;;17.33;15.10;;;35.00;99.90;;;;;;4954755;28;20777;-81
2022/08/15 07:50:38;;;;;;;17.10;14.87;;;34.50;99.90;;;;;;4952509;28;20468;-79
2022/08/15 07:53:18;;;;;;;17.00;15.37;;;34.20;99.90;;;;;;4948426;28;20488;-78
2022/08/15 07:56:15;;;;;;;16.63;14.97;;;33.70;99.90;;;;;;4959216;28;20709;-81
2022/08/15 07:59:20;;;;;;;14.93;13.43;;;35.00;99.90;;;;;;4956802;28;20485;-84
2022/08/15 08:01:54;;;;;;;14.10;12.80;;;35.50;99.70;;;;;;4955029;28;20460;-80
2022/08/15 08:04:29;;;;;;;16.73;14.97;;;36.20;99.90;;;;;;4964587;28;20468;-82
2022/08/15 08:07:13;;;;;;;14.37;13.00;;;35.70;98.70;;;;;;4946511;28;20791;-80
2022/08/15 08:10:23;;;;;;;14.20;12.80;;;35.40;99.90;;;;;;4950635;28;20600;-79
2022/08/15 08:13:12;;;;;;;16.57;14.87;;;37.60;98.60;;;;;;4957260;28;20517;-82
2022/08/15 08:16:22;;;;;;;19.10;14.33;;;38.70;91.60;;;;;;4951155;29;20436;-79
2022/08/15 08:19:25;;;;;;;17.20;15.63;;;36.50;95.40;;;;;;4949098;29;20513;-82
2022/08/15 08:22:17;;;;;;;17.73;15.93;;;36.50;95.90;;;;;;4957903;28;20461;-80
2022/08/15 08:24:58;;;;;;;14.80;13.47;;;36.00;97.80;;;;;;4968595;28;20425;-79
2022/08/15 08:27:57;;;;;;;16.97;15.37;;;37.90;94.50;;;;;;4967193;28;20429;-81
2022/08/15 08:30:55;;;;;;;16.00;14.70;;;36.10;95.70;;;;;;4961923;28;20487;-80
2022/08/15 08:33:33;;;;;;;15.13;13.63;;;35.60;97.20;;;;;;4955328;28;20544;-81
2022/08/15 08:36:25;;;;;;;12.40;11.23;;;35.90;97.00;;;;;;4959193;28;20971;-78
2022/08/15 08:39:27;;;;;;;14.80;13.40;;;36.10;99.50;;;;;;4960831;28;20847;-80
2022/08/15 08:42:30;;;;;;;15.90;14.33;;;37.20;95.00;;;;;;4960297;28;20452;-80
2022/08/15 08:45:19;;;;;;;13.40;12.23;;;37.90;91.80;;;;;;4955391;29;20449;-81
2022/08/15 08:48:18;;;;;;;14.87;13.37;;;36.80;93.80;;;;;;4962739;29;20657;-82
2022/08/15 08:51:00;;;;;;;12.17;11.00;;;36.40;93.60;;;;;;4971043;28;20467;-80
2022/08/15 08:53:48;;;;;;;13.67;12.37;;;35.80;95.60;;;;;;4961727;28;20756;-80
2022/08/15 08:56:40;;;;;;;14.10;12.80;;;37.20;93.20;;;;;;4951619;29;20500;-80
2022/08/15 08:59:16;;;;;;;14.97;13.57;;;38.30;90.40;;;;;;4958175;28;20776;-81
2022/08/15 09:01:51;;;;;;;14.07;12.70;;;38.20;90.40;;;;;;4956457;28;20448;-80
2022/08/15 09:04:39;;;;;;;16.43;14.70;;;38.10;91.30;;;;;;4969263;28;20443;-79
2022/08/15 09:07:07;;;;;;;14.40;13.10;;;38.30;88.60;;;;;;4939118;29;20535;-79
2022/08/15 09:09:42;;;;;;;14.17;12.87;;;38.40;89.50;;;;;;4957965;29;20476;-80
2022/08/15 09:15:03;;;;;;;14.13;12.83;;;39.30;86.70;;;;;;4952968;29;20437;-81
2022/08/15 09:17:44;;;;;;;17.13;14.77;;;39.00;88.20;;;;;;4955100;28;20467;-82
2022/08/15 09:20:33;;;;;;;14.50;13.13;;;37.30;90.90;;;;;;4948492;28;20438;-81
2022/08/15 09:23:05;;;;;;;13.70;12.23;;;36.40;93.60;;;;;;4946603;29;20457;-79
2022/08/15 09:25:42;;;;;;;16.27;12.70;;;36.10;94.50;;;;;;4955257;28;20465;-82
2022/08/15 09:28:35;;;;;;;15.43;13.93;;;36.10;94.60;;;;;;4952530;28;20648;-80
2022/08/15 09:31:12;;;;;;;16.93;15.17;;;35.10;96.80;;;;;;4949300;29;20434;-79
2022/08/15 09:34:01;;;;;;;16.47;14.73;;;35.00;98.50;;;;;;4972928;28;20637;-80
2022/08/15 09:37:03;;;;;;;17.80;14.57;;;33.40;99.90;;;;;;4969345;28;20472;-79
2022/08/15 09:39:55;;;;;;;19.90;15.27;;;31.30;99.90;;;;;;4968881;28;20472;-79
2022/08/15 09:42:27;;;;;;;16.93;15.23;;;30.30;99.90;;;;;;4968947;28;20455;-79
2022/08/15 09:45:11;;;;;;;16.33;14.73;;;29.90;99.90;;;;;;4953558;29;20450;-81
2022/08/15 09:48:22;;;;;;;17.90;16.13;;;29.60;99.90;;;;;;4953013;28;20506;-82
2022/08/15 09:51:16;;;;;;;16.13;14.73;;;29.50;99.90;;;;;;4957049;28;20437;-80
2022/08/15 09:54:01;;;;;;;16.70;14.47;;;29.60;99.90;;;;;;4948849;28;20439;-80
2022/08/15 09:56:49;;;;;;;17.10;14.37;;;29.20;99.90;;;;;;4945764;29;20439;-80
2022/08/15 09:59:25;;;;;;;15.60;14.00;;;28.60;99.90;;;;;;4946538;28;20493;-79
2022/08/15 10:02:21;;;;;;;16.80;12.80;;;28.40;99.90;;;;;;4948806;29;20428;-80
2022/08/15 10:05:23;;;;;;;14.90;13.50;;;28.40;99.90;;;;;;4952170;28;20502;-80
2022/08/15 10:07:52;;;;;;;14.70;13.20;;;28.40;99.90;;;;;;4956762;28;20437;-81
2022/08/15 10:10:43;;;;;;;16.97;15.37;;;28.50;99.90;;;;;;4966935;28;20499;-81
2022/08/15 10:13:32;;;;;;;12.57;10.87;;;28.70;99.90;;;;;;4961861;28;20501;-79
2022/08/15 10:15:59;;;;;;;13.43;11.97;;;28.90;99.90;;;;;;4953707;29;20452;-80
2022/08/15 10:18:27;;;;;;;13.77;12.40;;;29.00;99.90;;;;;;4961585;28;20496;-80
2022/08/15 10:21:16;;;;;;;14.63;13.13;;;29.20;99.90;;;;;;4958518;28;20453;-81
2022/08/15 10:23:52;;;;;;;13.00;11.90;;;28.90;99.90;;;;;;4964202;28;21202;-81
2022/08/15 10:26:36;;;;;;;15.33;12.07;;;28.50;99.90;;;;;;4957701;28;20473;-81
2022/08/15 10:29:09;;;;;;;13.40;12.00;;;28.30;99.90;;;;;;4954308;29;20482;-81
2022/08/15 10:31:57;;;;;;;12.47;11.17;;;28.20;99.90;;;;;;4956187;28;20784;-79
2022/08/15 10:35:20;;;;;;;13.40;10.97;;;28.00;99.90;;;;;;4959799;28;21009;-80
2022/08/15 10:37:51;;;;;;;10.90;9.90;;;28.00;99.90;;;;;;4954165;28;20444;-82
2022/08/15 10:40:36;;;;;;;12.13;10.33;;;28.30;99.90;;;;;;4964404;28;20581;-79
2022/08/15 10:43:44;;;;;;;11.67;10.00;;;28.60;99.90;;;;;;4951226;28;20445;-81
2022/08/15 10:46:23;;;;;;;11.57;10.57;;;28.90;99.90;;;;;;4956659;28;20504;-81
2022/08/15 10:49:11;;;;;;;10.77;9.80;;;28.90;99.90;;;;;;4952873;29;20473;-78
2022/08/15 10:52:28;;;;;;;11.97;10.87;;;29.00;99.90;;;;;;4952485;28;20441;-80
2022/08/15 10:55:16;;;;;;;11.27;10.27;;;28.90;99.90;;;;;;4945022;29;20449;-82
2022/08/15 10:58:24;;;;;;;9.67;8.77;;;28.90;99.90;;;;;;4950828;28;20535;-79
2022/08/15 11:01:06;;;;;;;10.43;9.43;;;28.90;99.90;;;;;;4952842;28;20512;-79
2022/08/15 11:04:06;;;;;;;10.60;9.50;;;28.90;99.90;;;;;;4951907;28;20476;-80
2022/08/15 11:06:53;;;;;;;11.63;9.03;;;28.80;99.90;;;;;;4947403;28;20634;-81
2022/08/15 11:09:23;;;;;;;10.53;9.53;;;28.90;99.90;;;;;;4954390;28;20541;-83
2022/08/15 11:12:02;;;;;;;9.60;8.70;;;28.70;99.90;;;;;;4955886;28;20445;-83
2022/08/15 11:14:40;;;;;;;11.63;10.47;;;28.40;99.90;;;;;;4953837;28;20505;-82
2022/08/15 11:17:21;;;;;;;11.30;10.20;;;28.30;99.90;;;;;;4948530;29;20489;-81
2022/08/15 11:19:51;;;;;;;11.43;10.43;;;28.40;99.90;;;;;;4954259;29;20669;-81
2022/08/15 11:22:50;;;;;;;11.73;9.33;;;28.50;99.90;;;;;;4952757;28;20457;-81
2022/08/15 11:25:24;;;;;;;10.13;9.23;;;28.80;99.90;;;;;;4956119;28;20993;-81
2022/08/15 11:28:21;;;;;;;11.83;10.43;;;29.00;99.90;;;;;;4959818;28;20545;-80
2022/08/15 11:31:17;;;;;;;10.40;9.40;;;29.00;99.90;;;;;;4958987;28;20414;-81
2022/08/15 11:33:48;;;;;;;10.23;9.33;;;29.00;99.90;;;;;;4965019;28;20449;-80
2022/08/15 11:36:23;;;;;;;11.70;10.60;;;28.70;99.90;;;;;;4945732;28;20634;-80
2022/08/15 11:39:01;;;;;;;9.23;8.37;;;28.80;99.90;;;;;;4956645;28;20527;-81
2022/08/15 11:41:51;;;;;;;8.93;8.13;;;28.50;99.90;;;;;;4957187;28;20465;-82
2022/08/15 11:44:29;;;;;;;10.00;9.00;;;28.60;99.90;;;;;;4961483;28;20521;-81
2022/08/15 11:46:57;;;;;;;10.30;9.50;;;28.70;99.90;;;;;;4958681;28;20453;-80
2022/08/15 11:49:41;;;;;;;11.53;8.50;;;28.70;99.90;;;;;;4965717;28;20426;-80
2022/08/15 11:52:10;;;;;;;9.93;8.60;;;28.70;99.90;;;;;;4964321;28;20766;-84
2022/08/15 11:55:19;;;;;;;10.80;9.90;;;28.70;99.90;;;;;;4961766;28;20543;-84
2022/08/15 11:58:00;;;;;;;9.70;8.80;;;29.10;99.90;;;;;;4958054;28;20439;-79
2022/08/15 12:00:36;;;;;;;9.27;8.47;;;29.30;99.90;;;;;;4964697;28;20493;-82
2022/08/15 12:03:16;;;;;;;9.23;8.33;;;29.60;99.90;;;;;;4963709;28;20899;-80
2022/08/15 12:06:12;;;;;;;9.50;8.70;;;29.80;99.90;;;;;;4962636;28;20403;-81
2022/08/15 12:09:20;;;;;;;8.87;8.17;;;29.70;99.90;;;;;;4958660;28;20433;-82
2022/08/15 12:12:31;;;;;;;9.67;8.70;;;29.40;99.90;;;;;;4954340;28;20441;-81
2022/08/15 12:15:16;;;;;;;13.73;12.10;;;29.20;99.90;;;;;;4954550;28;20453;-80
2022/08/15 12:18:11;;;;;;;17.37;15.70;;;29.40;99.90;;;;;;4958338;28;20507;-81
2022/08/15 12:21:03;;;;;;;10.00;9.03;;;29.50;99.90;;;;;;4961051;28;20816;-79
2022/08/15 12:23:54;;;;;;;9.87;8.83;;;29.40;99.90;;;;;;4956292;28;20877;-81
2022/08/15 12:26:25;;;;;;;9.40;8.60;;;29.50;99.90;;;;;;4952692;28;20447;-81
2022/08/15 12:29:11;;;;;;;11.97;10.80;;;29.70;99.90;;;;;;4954610;28;20489;-80
2022/08/15 12:31:41;;;;;;;10.47;9.57;;;29.80;99.90;;;;;;4957436;28;20431;-80
2022/08/15 12:34:13;;;;;;;11.50;10.40;;;30.20;99.90;;;;;;4955923;28;20480;-81
2022/08/15 12:36:56;;;;;;;9.90;9.00;;;30.60;99.90;;;;;;4970509;28;20593;-80
2022/08/15 12:39:29;;;;;;;15.10;13.70;;;30.80;99.90;;;;;;4955638;28;20439;-81
2022/08/15 12:41:56;;;;;;;19.07;17.23;;;31.10;99.90;;;;;;4952178;28;20492;-81
2022/08/15 12:44:46;;;;;;;19.00;14.57;;;31.10;99.90;;;;;;4951596;29;20551;-80
2022/08/15 12:47:15;;;;;;;10.30;9.30;;;31.40;99.90;;;;;;4947853;29;20435;-80
2022/08/15 12:49:44;;;;;;;8.87;8.07;;;31.20;99.90;;;;;;4950533;29;20455;-79
2022/08/15 12:52:15;;;;;;;11.63;10.47;;;31.20;99.90;;;;;;4953521;29;20773;-80
2022/08/15 12:54:47;;;;;;;13.10;11.30;;;31.30;99.90;;;;;;4944435;29;20476;-81
2022/08/15 12:57:15;;;;;;;14.67;13.27;;;31.20;99.90;;;;;;4948741;29;20450;-80
2022/08/15 12:59:48;;;;;;;13.47;12.10;;;31.00;99.90;;;;;;4947810;29;20500;-79
2022/08/15 13:02:16;;;;;;;15.33;10.57;;;30.70;99.90;;;;;;4948691;29;20445;-81
2022/08/15 13:05:05;;;;;;;12.90;11.70;;;30.50;99.90;;;;;;4953809;29;20489;-81
2022/08/15 13:07:40;;;;;;;11.57;10.37;;;30.50;99.90;;;;;;4953647;28;20488;-82
2022/08/15 13:10:27;;;;;;;8.73;7.87;;;29.80;99.90;;;;;;4950545;28;20438;-80
2022/08/15 13:13:16;;;;;;;14.03;8.50;;;29.00;99.90;;;;;;4946701;28;20446;-82
2022/08/15 13:15:44;;;;;;;8.37;7.47;;;28.50;99.90;;;;;;4948655;28;20499;-81
2022/08/15 13:18:19;;;;;;;8.83;8.07;;;28.40;99.90;;;;;;4951213;29;20440;-81
2022/08/15 13:23:38;;;;;;;8.10;6.90;;;27.90;99.90;;;;;;4944587;29;20425;-80
2022/08/15 13:26:25;;;;;;;9.13;8.23;;;27.80;99.90;;;;;;4948879;29;20419;-82
2022/08/15 13:28:59;;;;;;;10.83;9.77;;;27.60;99.90;;;;;;4945825;28;20415;-81
2022/08/15 13:31:28;;;;;;;8.53;7.67;;;27.60;99.90;;;;;;4947745;28;21054;-81
2022/08/15 13:33:58;;;;;;;6.60;6.00;;;27.60;99.90;;;;;;4952725;28;20428;-82
2022/08/15 13:36:28;;;;;;;11.90;6.53;;;27.80;99.90;;;;;;4947452;28;20448;-81
2022/08/15 13:38:59;;;;;;;7.87;7.17;;;28.00;99.90;;;;;;4953467;28;20530;-82
2022/08/15 13:41:37;;;;;;;7.37;6.67;;;28.10;99.90;;;;;;4949387;28;20778;-82
2022/08/15 13:44:16;;;;;;;7.77;7.00;;;28.10;99.90;;;;;;4953247;29;20471;-82
2022/08/15 13:47:00;;;;;;;9.23;8.33;;;27.80;99.90;;;;;;4947791;29;20865;-81
2022/08/15 13:49:29;;;;;;;9.47;6.53;;;27.80;99.90;;;;;;4949753;28;20833;-84
2022/08/15 13:51:58;;;;;;;6.60;5.00;;;27.90;99.90;;;;;;4949236;29;20670;-82
2022/08/15 13:54:46;;;;;;;8.13;6.47;;;27.90;99.90;;;;;;4955667;29;20418;-81